sensor_id;sensor_type;location;lat;lon;timestamp;P1;durP1;ratioP1;P2;durP2;ratioP2
27746;SDS011;15138;51.012;4.692;2023-01-28T00:02:06;11.70;;;7.85;;
27746;SDS011;15138;51.012;4.692;2023-01-28T00:04:36;12.85;;;7.18;;
27746;SDS011;15138;51.012;4.692;2023-01-28T00:07:05;10.88;;;8.23;;
27746;SDS011;15138;51.012;4.692;2023-01-28T00:09:34;11.68;;;8.68;;
27746;SDS011;15138;51.012;4.692;2023-01-28T00:12:02;9.05;;;6.78;;
27746;SDS011;15138;51.012;4.692;2023-01-28T00:14:31;10.57;;;7.63;;
27746;SDS011;15138;51.012;4.692;2023-01-28T00:16:59;11.75;;;8.30;;
27746;SDS011;15138;51.012;4.692;2023-01-28T00:19:27;9.30;;;6.88;;
27746;SDS011;15138;51.012;4.692;2023-01-28T00:21:57;8.60;;;6.03;;
27746;SDS011;15138;51.012;4.692;2023-01-28T00:24:25;12.98;;;8.13;;
27746;SDS011;15138;51.012;4.692;2023-01-28T00:26:53;11.05;;;8.07;;
27746;SDS011;15138;51.012;4.692;2023-01-28T00:29:22;10.43;;;7.75;;
27746;SDS011;15138;51.012;4.692;2023-01-28T00:31:50;11.00;;;7.82;;
27746;SDS011;15138;51.012;4.692;2023-01-28T00:34:18;10.57;;;7.93;;
27746;SDS011;15138;51.012;4.692;2023-01-28T00:36:47;11.90;;;7.50;;
27746;SDS011;15138;51.012;4.692;2023-01-28T00:39:24;12.48;;;9.05;;
27746;SDS011;15138;51.012;4.692;2023-01-28T00:41:54;10.35;;;7.10;;
27746;SDS011;15138;51.012;4.692;2023-01-28T00:44:22;8.38;;;5.53;;
27746;SDS011;15138;51.012;4.692;2023-01-28T00:46:50;11.60;;;8.40;;
27746;SDS011;15138;51.012;4.692;2023-01-28T00:49:19;10.25;;;7.35;;
27746;SDS011;15138;51.012;4.692;2023-01-28T00:51:47;7.10;;;5.57;;
27746;SDS011;15138;51.012;4.692;2023-01-28T00:54:15;12.80;;;8.80;;
27746;SDS011;15138;51.012;4.692;2023-01-28T00:56:45;11.40;;;7.97;;
27746;SDS011;15138;51.012;4.692;2023-01-28T00:59:13;8.18;;;5.68;;
27746;SDS011;15138;51.012;4.692;2023-01-28T01:01:42;10.10;;;7.45;;
27746;SDS011;15138;51.012;4.692;2023-01-28T01:04:10;11.48;;;8.30;;
27746;SDS011;15138;51.012;4.692;2023-01-28T01:06:39;15.30;;;10.35;;
27746;SDS011;15138;51.012;4.692;2023-01-28T01:09:09;11.70;;;8.23;;
27746;SDS011;15138;51.012;4.692;2023-01-28T01:11:38;16.65;;;11.93;;
27746;SDS011;15138;51.012;4.692;2023-01-28T01:14:08;15.20;;;10.05;;
27746;SDS011;15138;51.012;4.692;2023-01-28T01:16:37;13.73;;;9.48;;
27746;SDS011;15138;51.012;4.692;2023-01-28T01:19:06;11.52;;;7.65;;
27746;SDS011;15138;51.012;4.692;2023-01-28T01:21:34;16.85;;;11.95;;
27746;SDS011;15138;51.012;4.692;2023-01-28T01:24:03;13.88;;;9.40;;
27746;SDS011;15138;51.012;4.692;2023-01-28T01:26:32;9.55;;;5.13;;
27746;SDS011;15138;51.012;4.692;2023-01-28T01:29:00;11.85;;;8.45;;
27746;SDS011;15138;51.012;4.692;2023-01-28T01:31:30;12.25;;;7.63;;
27746;SDS011;15138;51.012;4.692;2023-01-28T01:33:58;13.35;;;8.57;;
27746;SDS011;15138;51.012;4.692;2023-01-28T01:36:27;16.05;;;9.40;;
27746;SDS011;15138;51.012;4.692;2023-01-28T01:38:55;14.15;;;9.77;;
27746;SDS011;15138;51.012;4.692;2023-01-28T01:41:25;13.60;;;9.43;;
27746;SDS011;15138;51.012;4.692;2023-01-28T01:43:55;15.57;;;9.90;;
27746;SDS011;15138;51.012;4.692;2023-01-28T01:46:28;14.63;;;9.73;;
27746;SDS011;15138;51.012;4.692;2023-01-28T01:49:05;14.93;;;9.55;;
27746;SDS011;15138;51.012;4.692;2023-01-28T01:51:40;14.85;;;9.55;;
27746;SDS011;15138;51.012;4.692;2023-01-28T01:54:09;16.27;;;9.95;;
27746;SDS011;15138;51.012;4.692;2023-01-28T01:56:39;16.23;;;9.82;;
27746;SDS011;15138;51.012;4.692;2023-01-28T01:59:11;14.50;;;8.65;;
27746;SDS011;15138;51.012;4.692;2023-01-28T02:01:44;15.77;;;10.32;;
27746;SDS011;15138;51.012;4.692;2023-01-28T02:04:14;12.85;;;8.50;;
27746;SDS011;15138;51.012;4.692;2023-01-28T02:06:46;16.98;;;11.02;;
27746;SDS011;15138;51.012;4.692;2023-01-28T02:09:22;12.20;;;7.75;;
27746;SDS011;15138;51.012;4.692;2023-01-28T02:11:51;18.00;;;11.35;;
27746;SDS011;15138;51.012;4.692;2023-01-28T02:14:21;18.33;;;12.15;;
27746;SDS011;15138;51.012;4.692;2023-01-28T02:16:58;15.43;;;9.85;;
27746;SDS011;15138;51.012;4.692;2023-01-28T02:19:29;9.93;;;6.25;;
27746;SDS011;15138;51.012;4.692;2023-01-28T02:25:36;14.63;;;9.27;;
27746;SDS011;15138;51.012;4.692;2023-01-28T02:28:28;11.98;;;7.97;;
27746;SDS011;15138;51.012;4.692;2023-01-28T02:31:03;14.75;;;8.35;;
27746;SDS011;15138;51.012;4.692;2023-01-28T02:33:37;14.35;;;8.93;;
27746;SDS011;15138;51.012;4.692;2023-01-28T02:36:11;17.98;;;10.93;;
27746;SDS011;15138;51.012;4.692;2023-01-28T02:38:45;20.48;;;12.05;;
27746;SDS011;15138;51.012;4.692;2023-01-28T02:41:18;12.23;;;7.78;;
27746;SDS011;15138;51.012;4.692;2023-01-28T02:43:52;20.90;;;13.63;;
27746;SDS011;15138;51.012;4.692;2023-01-28T02:46:21;12.50;;;7.70;;
27746;SDS011;15138;51.012;4.692;2023-01-28T02:49:21;12.60;;;7.10;;
27746;SDS011;15138;51.012;4.692;2023-01-28T02:52:04;16.90;;;10.02;;
27746;SDS011;15138;51.012;4.692;2023-01-28T02:54:48;18.10;;;10.68;;
27746;SDS011;15138;51.012;4.692;2023-01-28T02:57:27;17.67;;;11.27;;
27746;SDS011;15138;51.012;4.692;2023-01-28T03:00:05;14.95;;;9.15;;
27746;SDS011;15138;51.012;4.692;2023-01-28T03:02:40;14.77;;;8.07;;
27746;SDS011;15138;51.012;4.692;2023-01-28T03:05:13;15.52;;;9.88;;
27746;SDS011;15138;51.012;4.692;2023-01-28T03:07:47;15.02;;;8.75;;
27746;SDS011;15138;51.012;4.692;2023-01-28T03:10:17;15.20;;;9.57;;
27746;SDS011;15138;51.012;4.692;2023-01-28T03:12:48;18.42;;;12.13;;
27746;SDS011;15138;51.012;4.692;2023-01-28T03:15:39;15.65;;;10.60;;
27746;SDS011;15138;51.012;4.692;2023-01-28T03:18:28;15.68;;;10.05;;
27746;SDS011;15138;51.012;4.692;2023-01-28T03:21:21;12.75;;;7.38;;
27746;SDS011;15138;51.012;4.692;2023-01-28T03:24:11;12.68;;;7.93;;
27746;SDS011;15138;51.012;4.692;2023-01-28T03:27:01;15.00;;;9.98;;
27746;SDS011;15138;51.012;4.692;2023-01-28T03:29:50;16.48;;;10.63;;
27746;SDS011;15138;51.012;4.692;2023-01-28T03:32:42;16.88;;;11.23;;
27746;SDS011;15138;51.012;4.692;2023-01-28T03:35:29;15.15;;;10.05;;
27746;SDS011;15138;51.012;4.692;2023-01-28T03:38:18;18.33;;;12.48;;
27746;SDS011;15138;51.012;4.692;2023-01-28T03:40:49;13.55;;;8.93;;
27746;SDS011;15138;51.012;4.692;2023-01-28T03:43:17;15.50;;;10.10;;
27746;SDS011;15138;51.012;4.692;2023-01-28T03:45:46;12.23;;;8.07;;
27746;SDS011;15138;51.012;4.692;2023-01-28T03:48:18;13.80;;;8.25;;
27746;SDS011;15138;51.012;4.692;2023-01-28T03:50:47;20.02;;;12.73;;
27746;SDS011;15138;51.012;4.692;2023-01-28T03:53:16;16.42;;;11.00;;
27746;SDS011;15138;51.012;4.692;2023-01-28T03:55:46;14.45;;;8.60;;
27746;SDS011;15138;51.012;4.692;2023-01-28T03:58:16;15.15;;;9.27;;
27746;SDS011;15138;51.012;4.692;2023-01-28T04:00:45;11.38;;;7.78;;
27746;SDS011;15138;51.012;4.692;2023-01-28T04:03:14;14.95;;;9.77;;
27746;SDS011;15138;51.012;4.692;2023-01-28T04:05:45;18.25;;;11.05;;
27746;SDS011;15138;51.012;4.692;2023-01-28T04:08:24;18.92;;;12.50;;
27746;SDS011;15138;51.012;4.692;2023-01-28T04:10:53;11.60;;;7.78;;
27746;SDS011;15138;51.012;4.692;2023-01-28T04:13:21;15.77;;;9.68;;
27746;SDS011;15138;51.012;4.692;2023-01-28T04:15:49;15.43;;;10.20;;
27746;SDS011;15138;51.012;4.692;2023-01-28T04:18:18;13.90;;;8.85;;
27746;SDS011;15138;51.012;4.692;2023-01-28T04:20:54;15.43;;;10.40;;
27746;SDS011;15138;51.012;4.692;2023-01-28T04:23:22;16.10;;;10.20;;
27746;SDS011;15138;51.012;4.692;2023-01-28T04:25:50;18.63;;;12.02;;
27746;SDS011;15138;51.012;4.692;2023-01-28T04:28:18;15.43;;;9.80;;
27746;SDS011;15138;51.012;4.692;2023-01-28T04:30:47;15.63;;;9.18;;
27746;SDS011;15138;51.012;4.692;2023-01-28T04:33:15;12.15;;;7.47;;
27746;SDS011;15138;51.012;4.692;2023-01-28T04:35:44;11.50;;;7.38;;
27746;SDS011;15138;51.012;4.692;2023-01-28T04:38:13;9.38;;;5.20;;
27746;SDS011;15138;51.012;4.692;2023-01-28T04:40:41;14.38;;;9.02;;
27746;SDS011;15138;51.012;4.692;2023-01-28T04:43:10;15.52;;;9.90;;
27746;SDS011;15138;51.012;4.692;2023-01-28T04:45:38;16.48;;;10.93;;
27746;SDS011;15138;51.012;4.692;2023-01-28T04:48:07;15.90;;;10.43;;
27746;SDS011;15138;51.012;4.692;2023-01-28T04:50:35;13.07;;;8.82;;
27746;SDS011;15138;51.012;4.692;2023-01-28T04:53:04;17.02;;;10.25;;
27746;SDS011;15138;51.012;4.692;2023-01-28T04:55:34;14.23;;;9.10;;
27746;SDS011;15138;51.012;4.692;2023-01-28T04:58:02;13.90;;;8.18;;
27746;SDS011;15138;51.012;4.692;2023-01-28T05:00:31;14.43;;;8.85;;
27746;SDS011;15138;51.012;4.692;2023-01-28T05:02:59;14.07;;;8.27;;
27746;SDS011;15138;51.012;4.692;2023-01-28T05:05:27;16.38;;;9.60;;
27746;SDS011;15138;51.012;4.692;2023-01-28T05:07:56;15.25;;;10.05;;
27746;SDS011;15138;51.012;4.692;2023-01-28T05:10:25;12.27;;;7.45;;
27746;SDS011;15138;51.012;4.692;2023-01-28T05:12:55;14.93;;;8.57;;
27746;SDS011;15138;51.012;4.692;2023-01-28T05:15:23;12.85;;;8.18;;
27746;SDS011;15138;51.012;4.692;2023-01-28T05:17:53;18.88;;;11.77;;
27746;SDS011;15138;51.012;4.692;2023-01-28T05:20:22;10.73;;;6.38;;
27746;SDS011;15138;51.012;4.692;2023-01-28T05:22:50;10.40;;;7.15;;
27746;SDS011;15138;51.012;4.692;2023-01-28T05:25:19;9.13;;;5.82;;
27746;SDS011;15138;51.012;4.692;2023-01-28T05:27:51;10.75;;;6.15;;
27746;SDS011;15138;51.012;4.692;2023-01-28T05:30:21;11.32;;;6.38;;
27746;SDS011;15138;51.012;4.692;2023-01-28T05:32:55;13.15;;;8.65;;
27746;SDS011;15138;51.012;4.692;2023-01-28T05:35:24;13.10;;;7.18;;
27746;SDS011;15138;51.012;4.692;2023-01-28T05:37:52;13.88;;;9.40;;
27746;SDS011;15138;51.012;4.692;2023-01-28T05:40:20;15.57;;;10.90;;
27746;SDS011;15138;51.012;4.692;2023-01-28T05:42:49;12.25;;;8.25;;
27746;SDS011;15138;51.012;4.692;2023-01-28T05:45:17;11.73;;;8.40;;
27746;SDS011;15138;51.012;4.692;2023-01-28T05:47:47;19.35;;;10.43;;
27746;SDS011;15138;51.012;4.692;2023-01-28T05:50:15;14.05;;;8.55;;
27746;SDS011;15138;51.012;4.692;2023-01-28T05:52:44;9.60;;;6.80;;
27746;SDS011;15138;51.012;4.692;2023-01-28T05:55:12;13.07;;;8.80;;
27746;SDS011;15138;51.012;4.692;2023-01-28T05:57:40;16.52;;;10.63;;
27746;SDS011;15138;51.012;4.692;2023-01-28T06:00:10;13.43;;;9.23;;
27746;SDS011;15138;51.012;4.692;2023-01-28T06:02:40;13.35;;;8.63;;
27746;SDS011;15138;51.012;4.692;2023-01-28T06:05:10;13.05;;;7.90;;
27746;SDS011;15138;51.012;4.692;2023-01-28T06:07:38;12.65;;;8.63;;
27746;SDS011;15138;51.012;4.692;2023-01-28T06:10:07;10.85;;;7.72;;
27746;SDS011;15138;51.012;4.692;2023-01-28T06:12:36;11.30;;;7.95;;
27746;SDS011;15138;51.012;4.692;2023-01-28T06:15:04;13.48;;;8.00;;
27746;SDS011;15138;51.012;4.692;2023-01-28T06:17:33;13.25;;;9.20;;
27746;SDS011;15138;51.012;4.692;2023-01-28T06:20:02;11.57;;;7.00;;
27746;SDS011;15138;51.012;4.692;2023-01-28T06:22:32;12.77;;;7.85;;
27746;SDS011;15138;51.012;4.692;2023-01-28T06:25:00;12.10;;;8.45;;
27746;SDS011;15138;51.012;4.692;2023-01-28T06:27:29;9.80;;;6.78;;
27746;SDS011;15138;51.012;4.692;2023-01-28T06:29:57;10.70;;;7.55;;
27746;SDS011;15138;51.012;4.692;2023-01-28T06:32:26;16.98;;;10.90;;
27746;SDS011;15138;51.012;4.692;2023-01-28T06:34:55;12.77;;;8.43;;
27746;SDS011;15138;51.012;4.692;2023-01-28T06:37:23;14.23;;;9.70;;
27746;SDS011;15138;51.012;4.692;2023-01-28T06:39:53;12.63;;;7.97;;
27746;SDS011;15138;51.012;4.692;2023-01-28T06:42:22;11.77;;;7.85;;
27746;SDS011;15138;51.012;4.692;2023-01-28T06:44:51;9.85;;;6.43;;
27746;SDS011;15138;51.012;4.692;2023-01-28T06:47:19;11.32;;;7.90;;
27746;SDS011;15138;51.012;4.692;2023-01-28T06:49:47;9.95;;;6.72;;
27746;SDS011;15138;51.012;4.692;2023-01-28T06:52:16;13.68;;;9.10;;
27746;SDS011;15138;51.012;4.692;2023-01-28T06:54:44;13.95;;;10.00;;
27746;SDS011;15138;51.012;4.692;2023-01-28T06:57:13;13.50;;;8.68;;
27746;SDS011;15138;51.012;4.692;2023-01-28T06:59:42;15.23;;;9.20;;
27746;SDS011;15138;51.012;4.692;2023-01-28T07:02:10;7.75;;;5.65;;
27746;SDS011;15138;51.012;4.692;2023-01-28T07:04:39;15.82;;;11.50;;
27746;SDS011;15138;51.012;4.692;2023-01-28T07:07:07;13.70;;;9.38;;
27746;SDS011;15138;51.012;4.692;2023-01-28T07:09:35;11.73;;;8.05;;
27746;SDS011;15138;51.012;4.692;2023-01-28T07:12:04;14.32;;;10.05;;
27746;SDS011;15138;51.012;4.692;2023-01-28T07:14:34;12.73;;;8.40;;
27746;SDS011;15138;51.012;4.692;2023-01-28T07:17:02;11.50;;;7.60;;
27746;SDS011;15138;51.012;4.692;2023-01-28T07:19:30;15.77;;;10.93;;
27746;SDS011;15138;51.012;4.692;2023-01-28T07:21:58;12.52;;;8.90;;
27746;SDS011;15138;51.012;4.692;2023-01-28T07:24:28;14.32;;;10.63;;
27746;SDS011;15138;51.012;4.692;2023-01-28T07:26:57;14.15;;;9.38;;
27746;SDS011;15138;51.012;4.692;2023-01-28T07:29:25;12.77;;;9.05;;
27746;SDS011;15138;51.012;4.692;2023-01-28T07:31:55;19.05;;;12.07;;
27746;SDS011;15138;51.012;4.692;2023-01-28T07:34:23;19.52;;;11.95;;
27746;SDS011;15138;51.012;4.692;2023-01-28T07:36:51;15.18;;;10.15;;
27746;SDS011;15138;51.012;4.692;2023-01-28T07:39:22;19.00;;;11.20;;
27746;SDS011;15138;51.012;4.692;2023-01-28T07:41:50;14.45;;;9.40;;
27746;SDS011;15138;51.012;4.692;2023-01-28T07:44:19;17.35;;;11.43;;
27746;SDS011;15138;51.012;4.692;2023-01-28T07:46:47;15.18;;;10.52;;
27746;SDS011;15138;51.012;4.692;2023-01-28T07:49:17;20.50;;;12.90;;
27746;SDS011;15138;51.012;4.692;2023-01-28T07:51:45;15.95;;;9.15;;
27746;SDS011;15138;51.012;4.692;2023-01-28T07:54:15;21.52;;;13.82;;
27746;SDS011;15138;51.012;4.692;2023-01-28T07:56:44;16.00;;;11.02;;
27746;SDS011;15138;51.012;4.692;2023-01-28T07:59:12;19.67;;;12.80;;
27746;SDS011;15138;51.012;4.692;2023-01-28T08:01:41;21.80;;;12.85;;
27746;SDS011;15138;51.012;4.692;2023-01-28T08:04:09;15.13;;;8.07;;
27746;SDS011;15138;51.012;4.692;2023-01-28T08:06:39;16.38;;;10.68;;
27746;SDS011;15138;51.012;4.692;2023-01-28T08:09:08;21.00;;;11.98;;
27746;SDS011;15138;51.012;4.692;2023-01-28T08:11:37;19.05;;;13.15;;
27746;SDS011;15138;51.012;4.692;2023-01-28T08:14:05;19.95;;;11.90;;
27746;SDS011;15138;51.012;4.692;2023-01-28T08:16:34;15.88;;;10.52;;
27746;SDS011;15138;51.012;4.692;2023-01-28T08:19:02;19.48;;;13.45;;
27746;SDS011;15138;51.012;4.692;2023-01-28T08:21:30;16.42;;;10.85;;
27746;SDS011;15138;51.012;4.692;2023-01-28T08:24:00;18.48;;;11.57;;
27746;SDS011;15138;51.012;4.692;2023-01-28T08:26:28;17.88;;;10.30;;
27746;SDS011;15138;51.012;4.692;2023-01-28T08:28:57;13.52;;;8.73;;
27746;SDS011;15138;51.012;4.692;2023-01-28T08:31:26;18.23;;;11.18;;
27746;SDS011;15138;51.012;4.692;2023-01-28T08:33:55;20.42;;;14.15;;
27746;SDS011;15138;51.012;4.692;2023-01-28T08:36:27;16.98;;;11.68;;
27746;SDS011;15138;51.012;4.692;2023-01-28T08:38:55;17.63;;;11.50;;
27746;SDS011;15138;51.012;4.692;2023-01-28T08:41:25;16.10;;;11.30;;
27746;SDS011;15138;51.012;4.692;2023-01-28T08:43:53;14.63;;;9.80;;
27746;SDS011;15138;51.012;4.692;2023-01-28T08:46:22;14.93;;;10.18;;
27746;SDS011;15138;51.012;4.692;2023-01-28T08:48:51;16.08;;;9.02;;
27746;SDS011;15138;51.012;4.692;2023-01-28T08:51:19;19.13;;;11.45;;
27746;SDS011;15138;51.012;4.692;2023-01-28T08:53:47;18.33;;;11.32;;
27746;SDS011;15138;51.012;4.692;2023-01-28T08:56:16;13.52;;;8.55;;
27746;SDS011;15138;51.012;4.692;2023-01-28T08:58:46;18.02;;;10.85;;
27746;SDS011;15138;51.012;4.692;2023-01-28T09:01:14;18.58;;;11.60;;
27746;SDS011;15138;51.012;4.692;2023-01-28T09:03:43;19.02;;;11.93;;
27746;SDS011;15138;51.012;4.692;2023-01-28T09:06:11;17.98;;;12.45;;
27746;SDS011;15138;51.012;4.692;2023-01-28T09:08:40;19.13;;;12.10;;
27746;SDS011;15138;51.012;4.692;2023-01-28T09:11:08;14.23;;;9.88;;
27746;SDS011;15138;51.012;4.692;2023-01-28T09:13:37;18.70;;;12.50;;
27746;SDS011;15138;51.012;4.692;2023-01-28T09:16:07;16.27;;;8.85;;
27746;SDS011;15138;51.012;4.692;2023-01-28T09:18:36;13.10;;;8.25;;
27746;SDS011;15138;51.012;4.692;2023-01-28T09:21:05;14.40;;;9.48;;
27746;SDS011;15138;51.012;4.692;2023-01-28T09:23:34;20.35;;;12.98;;
27746;SDS011;15138;51.012;4.692;2023-01-28T09:26:03;23.98;;;13.98;;
27746;SDS011;15138;51.012;4.692;2023-01-28T09:28:32;21.33;;;11.55;;
27746;SDS011;15138;51.012;4.692;2023-01-28T09:31:02;23.20;;;12.75;;
27746;SDS011;15138;51.012;4.692;2023-01-28T09:33:33;22.27;;;13.50;;
27746;SDS011;15138;51.012;4.692;2023-01-28T09:36:03;19.83;;;12.20;;
27746;SDS011;15138;51.012;4.692;2023-01-28T09:38:33;14.93;;;8.80;;
27746;SDS011;15138;51.012;4.692;2023-01-28T09:41:02;25.15;;;14.60;;
27746;SDS011;15138;51.012;4.692;2023-01-28T09:43:58;19.65;;;11.07;;
27746;SDS011;15138;51.012;4.692;2023-01-28T09:46:33;23.05;;;14.73;;
27746;SDS011;15138;51.012;4.692;2023-01-28T09:49:08;17.80;;;10.05;;
27746;SDS011;15138;51.012;4.692;2023-01-28T09:51:44;19.92;;;12.63;;
27746;SDS011;15138;51.012;4.692;2023-01-28T09:54:20;16.65;;;10.57;;
27746;SDS011;15138;51.012;4.692;2023-01-28T09:56:55;17.73;;;10.73;;
27746;SDS011;15138;51.012;4.692;2023-01-28T09:59:32;14.70;;;9.25;;
27746;SDS011;15138;51.012;4.692;2023-01-28T10:02:03;18.08;;;11.20;;
27746;SDS011;15138;51.012;4.692;2023-01-28T10:04:56;22.38;;;13.40;;
27746;SDS011;15138;51.012;4.692;2023-01-28T10:07:33;20.55;;;12.73;;
27746;SDS011;15138;51.012;4.692;2023-01-28T10:10:09;16.02;;;10.13;;
27746;SDS011;15138;51.012;4.692;2023-01-28T10:12:49;19.63;;;12.30;;
27746;SDS011;15138;51.012;4.692;2023-01-28T10:15:42;20.38;;;11.73;;
27746;SDS011;15138;51.012;4.692;2023-01-28T10:18:29;25.15;;;13.45;;
27746;SDS011;15138;51.012;4.692;2023-01-28T10:21:04;18.77;;;11.38;;
27746;SDS011;15138;51.012;4.692;2023-01-28T10:23:44;22.58;;;14.23;;
27746;SDS011;15138;51.012;4.692;2023-01-28T10:26:20;24.02;;;14.73;;
27746;SDS011;15138;51.012;4.692;2023-01-28T10:28:54;22.85;;;14.98;;
27746;SDS011;15138;51.012;4.692;2023-01-28T10:31:30;18.80;;;9.60;;
27746;SDS011;15138;51.012;4.692;2023-01-28T10:34:00;17.48;;;9.80;;
27746;SDS011;15138;51.012;4.692;2023-01-28T10:36:31;20.25;;;11.95;;
27746;SDS011;15138;51.012;4.692;2023-01-28T10:39:00;20.52;;;13.45;;
27746;SDS011;15138;51.012;4.692;2023-01-28T10:41:28;19.23;;;11.85;;
27746;SDS011;15138;51.012;4.692;2023-01-28T10:43:57;24.35;;;13.50;;
27746;SDS011;15138;51.012;4.692;2023-01-28T10:46:26;14.95;;;9.88;;
27746;SDS011;15138;51.012;4.692;2023-01-28T10:49:00;15.88;;;8.65;;
27746;SDS011;15138;51.012;4.692;2023-01-28T10:51:34;19.95;;;12.60;;
27746;SDS011;15138;51.012;4.692;2023-01-28T10:54:16;17.67;;;11.25;;
27746;SDS011;15138;51.012;4.692;2023-01-28T10:56:47;18.50;;;11.57;;
27746;SDS011;15138;51.012;4.692;2023-01-28T10:59:20;16.55;;;10.77;;
27746;SDS011;15138;51.012;4.692;2023-01-28T11:01:52;25.27;;;13.45;;
27746;SDS011;15138;51.012;4.692;2023-01-28T11:04:24;19.15;;;11.93;;
27746;SDS011;15138;51.012;4.692;2023-01-28T11:06:56;25.00;;;15.68;;
27746;SDS011;15138;51.012;4.692;2023-01-28T11:09:27;22.38;;;15.07;;
27746;SDS011;15138;51.012;4.692;2023-01-28T11:11:57;19.30;;;11.80;;
27746;SDS011;15138;51.012;4.692;2023-01-28T11:14:26;22.55;;;12.43;;
27746;SDS011;15138;51.012;4.692;2023-01-28T11:16:55;24.35;;;14.30;;
27746;SDS011;15138;51.012;4.692;2023-01-28T11:19:27;24.60;;;15.10;;
27746;SDS011;15138;51.012;4.692;2023-01-28T11:24:30;26.42;;;15.85;;
27746;SDS011;15138;51.012;4.692;2023-01-28T11:27:07;25.98;;;16.52;;
27746;SDS011;15138;51.012;4.692;2023-01-28T11:29:41;26.48;;;14.50;;
27746;SDS011;15138;51.012;4.692;2023-01-28T11:32:17;21.05;;;11.43;;
27746;SDS011;15138;51.012;4.692;2023-01-28T11:34:48;19.73;;;12.48;;
27746;SDS011;15138;51.012;4.692;2023-01-28T11:37:20;22.58;;;13.43;;
27746;SDS011;15138;51.012;4.692;2023-01-28T11:39:59;19.20;;;11.63;;
27746;SDS011;15138;51.012;4.692;2023-01-28T11:42:46;20.45;;;13.70;;
27746;SDS011;15138;51.012;4.692;2023-01-28T11:45:15;22.75;;;13.88;;
27746;SDS011;15138;51.012;4.692;2023-01-28T11:47:52;24.42;;;15.10;;
27746;SDS011;15138;51.012;4.692;2023-01-28T11:50:32;23.30;;;15.32;;
27746;SDS011;15138;51.012;4.692;2023-01-28T11:53:13;23.15;;;13.60;;
27746;SDS011;15138;51.012;4.692;2023-01-28T11:56:08;25.98;;;15.90;;
27746;SDS011;15138;51.012;4.692;2023-01-28T11:58:51;20.83;;;11.80;;
27746;SDS011;15138;51.012;4.692;2023-01-28T12:01:29;24.80;;;13.82;;
27746;SDS011;15138;51.012;4.692;2023-01-28T12:04:16;26.92;;;17.00;;
27746;SDS011;15138;51.012;4.692;2023-01-28T12:07:09;26.40;;;14.93;;
27746;SDS011;15138;51.012;4.692;2023-01-28T12:09:50;24.45;;;16.20;;
27746;SDS011;15138;51.012;4.692;2023-01-28T12:12:34;30.40;;;17.88;;
27746;SDS011;15138;51.012;4.692;2023-01-28T12:15:20;22.95;;;12.68;;
27746;SDS011;15138;51.012;4.692;2023-01-28T12:18:16;26.42;;;15.65;;
27746;SDS011;15138;51.012;4.692;2023-01-28T12:20:56;20.13;;;12.85;;
27746;SDS011;15138;51.012;4.692;2023-01-28T12:23:35;22.35;;;14.25;;
27746;SDS011;15138;51.012;4.692;2023-01-28T12:26:18;26.60;;;15.98;;
27746;SDS011;15138;51.012;4.692;2023-01-28T12:28:58;24.58;;;16.10;;
27746;SDS011;15138;51.012;4.692;2023-01-28T12:31:47;28.65;;;17.80;;
27746;SDS011;15138;51.012;4.692;2023-01-28T12:37:50;24.10;;;14.68;;
27746;SDS011;15138;51.012;4.692;2023-01-28T12:40:30;23.98;;;13.48;;
27746;SDS011;15138;51.012;4.692;2023-01-28T12:43:12;25.65;;;15.80;;
27746;SDS011;15138;51.012;4.692;2023-01-28T12:45:46;23.80;;;15.48;;
27746;SDS011;15138;51.012;4.692;2023-01-28T12:48:19;24.95;;;14.90;;
27746;SDS011;15138;51.012;4.692;2023-01-28T12:50:51;28.40;;;16.23;;
27746;SDS011;15138;51.012;4.692;2023-01-28T12:53:22;20.38;;;12.10;;
27746;SDS011;15138;51.012;4.692;2023-01-28T12:55:53;21.70;;;13.77;;
27746;SDS011;15138;51.012;4.692;2023-01-28T12:58:26;23.25;;;15.50;;
27746;SDS011;15138;51.012;4.692;2023-01-28T13:03:27;16.92;;;11.15;;
27746;SDS011;15138;51.012;4.692;2023-01-28T13:05:58;17.30;;;9.50;;
27746;SDS011;15138;51.012;4.692;2023-01-28T13:08:29;23.40;;;14.57;;
27746;SDS011;15138;51.012;4.692;2023-01-28T13:10:58;22.33;;;13.60;;
27746;SDS011;15138;51.012;4.692;2023-01-28T13:13:31;21.60;;;13.48;;
27746;SDS011;15138;51.012;4.692;2023-01-28T13:16:01;21.65;;;12.93;;
27746;SDS011;15138;51.012;4.692;2023-01-28T13:18:32;19.88;;;13.32;;
27746;SDS011;15138;51.012;4.692;2023-01-28T13:21:11;22.27;;;14.70;;
27746;SDS011;15138;51.012;4.692;2023-01-28T13:23:42;19.30;;;12.05;;
27746;SDS011;15138;51.012;4.692;2023-01-28T13:26:28;18.75;;;11.45;;
27746;SDS011;15138;51.012;4.692;2023-01-28T13:29:17;16.23;;;10.52;;
27746;SDS011;15138;51.012;4.692;2023-01-28T13:31:56;19.77;;;13.18;;
27746;SDS011;15138;51.012;4.692;2023-01-28T13:34:26;17.00;;;11.48;;
27746;SDS011;15138;51.012;4.692;2023-01-28T13:36:59;15.65;;;11.02;;
27746;SDS011;15138;51.012;4.692;2023-01-28T13:39:31;25.58;;;11.18;;
27746;SDS011;15138;51.012;4.692;2023-01-28T13:44:51;18.02;;;12.00;;
27746;SDS011;15138;51.012;4.692;2023-01-28T13:47:22;18.15;;;11.80;;
27746;SDS011;15138;51.012;4.692;2023-01-28T13:49:55;18.20;;;12.05;;
27746;SDS011;15138;51.012;4.692;2023-01-28T13:52:28;17.00;;;10.70;;
27746;SDS011;15138;51.012;4.692;2023-01-28T13:55:00;17.92;;;11.85;;
27746;SDS011;15138;51.012;4.692;2023-01-28T13:57:41;8.90;;;5.30;;
27746;SDS011;15138;51.012;4.692;2023-01-28T14:00:22;15.23;;;9.60;;
27746;SDS011;15138;51.012;4.692;2023-01-28T14:03:17;15.13;;;9.05;;
27746;SDS011;15138;51.012;4.692;2023-01-28T14:06:12;12.48;;;7.90;;
27746;SDS011;15138;51.012;4.692;2023-01-28T14:08:56;16.67;;;10.13;;
27746;SDS011;15138;51.012;4.692;2023-01-28T14:18:10;14.52;;;9.20;;
27746;SDS011;15138;51.012;4.692;2023-01-28T14:20:45;15.95;;;10.13;;
27746;SDS011;15138;51.012;4.692;2023-01-28T14:23:15;20.25;;;10.88;;
27746;SDS011;15138;51.012;4.692;2023-01-28T14:25:53;15.18;;;11.07;;
27746;SDS011;15138;51.012;4.692;2023-01-28T14:28:33;15.10;;;9.93;;
27746;SDS011;15138;51.012;4.692;2023-01-28T14:31:09;15.43;;;10.57;;
27746;SDS011;15138;51.012;4.692;2023-01-28T14:33:41;16.30;;;9.95;;
27746;SDS011;15138;51.012;4.692;2023-01-28T14:36:10;15.55;;;10.23;;
27746;SDS011;15138;51.012;4.692;2023-01-28T14:38:40;15.00;;;10.13;;
27746;SDS011;15138;51.012;4.692;2023-01-28T14:41:14;16.23;;;11.30;;
27746;SDS011;15138;51.012;4.692;2023-01-28T14:43:48;17.90;;;11.10;;
27746;SDS011;15138;51.012;4.692;2023-01-28T14:46:22;15.25;;;9.93;;
27746;SDS011;15138;51.012;4.692;2023-01-28T14:49:02;14.40;;;10.27;;
27746;SDS011;15138;51.012;4.692;2023-01-28T14:51:56;16.42;;;11.35;;
27746;SDS011;15138;51.012;4.692;2023-01-28T14:54:39;16.23;;;10.70;;
27746;SDS011;15138;51.012;4.692;2023-01-28T15:00:19;15.90;;;10.68;;
27746;SDS011;15138;51.012;4.692;2023-01-28T15:02:51;14.10;;;10.00;;
27746;SDS011;15138;51.012;4.692;2023-01-28T15:05:20;12.02;;;7.88;;
27746;SDS011;15138;51.012;4.692;2023-01-28T15:07:49;17.17;;;11.23;;
27746;SDS011;15138;51.012;4.692;2023-01-28T15:10:19;13.15;;;9.52;;
27746;SDS011;15138;51.012;4.692;2023-01-28T15:12:51;13.80;;;8.60;;
27746;SDS011;15138;51.012;4.692;2023-01-28T15:15:27;12.50;;;8.40;;
27746;SDS011;15138;51.012;4.692;2023-01-28T15:18:00;13.48;;;10.00;;
27746;SDS011;15138;51.012;4.692;2023-01-28T15:20:30;15.48;;;9.18;;
27746;SDS011;15138;51.012;4.692;2023-01-28T15:22:59;10.48;;;7.38;;
27746;SDS011;15138;51.012;4.692;2023-01-28T15:25:30;15.52;;;10.45;;